Columbia Regional Airport Columbia US
ICAO: KCOU
IATA: COU
Category: Medium
Scheduled Services: Yes

Elevation: 889 ft
TransAlt. 18000 ft.

Airport Communications:
MIZZU APP/DEP:124.375
ATIS:128.45
CTAF:119.3
GND:121.6
RDO:122.2
TWR:119.3
UNICOM:122.95

KCOU Zoom In..

If you have problems with the map follow the link
https://www.worldairports.se/pages/airport.php?
ICAO=KCOU

Runways:

(A) RW 02 length 6501 ft width 150 ft
ILS 110.70 / hdg 18

(B) RW 13 length 4401 ft width 75 ft
---- / hdg 132

(C) RW 20 length 6501 ft width 150 ft
---- / hdg 198

(D) RW 31 length 4401 ft width 75 ft
---- / hdg 312

Location; KCOU
Day. 21 / Time. 18.54 Zulu
* Altimeter: 30.29
* Temperature: 12° c. 53.6°f.
* Wind from: 200° Speed 07 kn.
Dewpoint: -02° c.
Visibility: 10 Statute Miles.
Clouds: Clear (automated report).

KCOU 211854Z 20007KT 10SM CLR 12/M02 A3029 RMK AO2 SLP263 T01221022


Wind From 200°
Speed 07 kn.

 
 
jpsmedia.com for Web Design worldairports.se 2018   terms of use